sensor_id;sensor_type;location;lat;lon;timestamp;P1;durP1;ratioP1;P2;durP2;ratioP2
18200;SDS011;9226;47.858;9.594;2023-04-01T00:00:15;1.20;;;0.50;;
18200;SDS011;9226;47.858;9.594;2023-04-01T00:02:41;4.07;;;0.73;;
18200;SDS011;9226;47.858;9.594;2023-04-01T00:05:06;2.77;;;0.63;;
18200;SDS011;9226;47.858;9.594;2023-04-01T00:07:32;5.10;;;0.60;;
18200;SDS011;9226;47.858;9.594;2023-04-01T00:09:58;2.47;;;1.03;;
18200;SDS011;9226;47.858;9.594;2023-04-01T00:12:23;2.57;;;0.57;;
18200;SDS011;9226;47.858;9.594;2023-04-01T00:14:50;6.03;;;0.90;;
18200;SDS011;9226;47.858;9.594;2023-04-01T00:17:15;1.60;;;0.77;;
18200;SDS011;9226;47.858;9.594;2023-04-01T00:19:41;3.20;;;0.90;;
18200;SDS011;9226;47.858;9.594;2023-04-01T00:22:07;3.47;;;0.73;;
18200;SDS011;9226;47.858;9.594;2023-04-01T00:24:34;2.50;;;0.80;;
18200;SDS011;9226;47.858;9.594;2023-04-01T00:26:59;2.57;;;0.60;;
18200;SDS011;9226;47.858;9.594;2023-04-01T00:29:25;1.50;;;0.80;;
18200;SDS011;9226;47.858;9.594;2023-04-01T00:31:54;2.30;;;0.60;;
18200;SDS011;9226;47.858;9.594;2023-04-01T00:34:20;1.60;;;0.70;;
18200;SDS011;9226;47.858;9.594;2023-04-01T00:36:46;3.00;;;0.70;;
18200;SDS011;9226;47.858;9.594;2023-04-01T00:39:11;0.80;;;0.50;;
18200;SDS011;9226;47.858;9.594;2023-04-01T00:41:36;3.87;;;0.77;;
18200;SDS011;9226;47.858;9.594;2023-04-01T00:44:14;0.77;;;0.70;;
18200;SDS011;9226;47.858;9.594;2023-04-01T00:46:47;1.83;;;0.70;;
18200;SDS011;9226;47.858;9.594;2023-04-01T00:49:13;2.53;;;0.60;;
18200;SDS011;9226;47.858;9.594;2023-04-01T00:51:41;1.87;;;0.80;;
18200;SDS011;9226;47.858;9.594;2023-04-01T00:54:08;0.60;;;0.60;;
18200;SDS011;9226;47.858;9.594;2023-04-01T00:56:35;3.53;;;0.60;;
18200;SDS011;9226;47.858;9.594;2023-04-01T00:59:13;4.33;;;0.90;;
18200;SDS011;9226;47.858;9.594;2023-04-01T01:01:41;0.80;;;0.53;;
18200;SDS011;9226;47.858;9.594;2023-04-01T01:04:07;0.93;;;0.63;;
18200;SDS011;9226;47.858;9.594;2023-04-01T01:12:25;1.37;;;0.53;;
18200;SDS011;9226;47.858;9.594;2023-04-01T01:31:11;2.97;;;0.40;;
18200;SDS011;9226;47.858;9.594;2023-04-01T01:33:57;2.47;;;0.40;;
18200;SDS011;9226;47.858;9.594;2023-04-01T01:36:26;2.57;;;0.90;;
18200;SDS011;9226;47.858;9.594;2023-04-01T01:38:56;0.47;;;0.40;;
18200;SDS011;9226;47.858;9.594;2023-04-01T01:41:23;1.63;;;0.50;;
18200;SDS011;9226;47.858;9.594;2023-04-01T01:43:51;1.43;;;0.60;;
18200;SDS011;9226;47.858;9.594;2023-04-01T01:46:22;1.63;;;0.60;;
18200;SDS011;9226;47.858;9.594;2023-04-01T01:48:49;0.40;;;0.40;;
18200;SDS011;9226;47.858;9.594;2023-04-01T01:51:17;0.60;;;0.60;;
18200;SDS011;9226;47.858;9.594;2023-04-01T01:53:44;0.60;;;0.40;;
18200;SDS011;9226;47.858;9.594;2023-04-01T01:56:10;1.60;;;0.47;;
18200;SDS011;9226;47.858;9.594;2023-04-01T01:58:51;0.70;;;0.70;;
18200;SDS011;9226;47.858;9.594;2023-04-01T02:01:25;0.30;;;0.30;;
18200;SDS011;9226;47.858;9.594;2023-04-01T02:03:53;0.80;;;0.50;;
18200;SDS011;9226;47.858;9.594;2023-04-01T02:06:23;0.40;;;0.40;;
18200;SDS011;9226;47.858;9.594;2023-04-01T02:14:18;1.23;;;0.63;;
18200;SDS011;9226;47.858;9.594;2023-04-01T02:19:18;2.60;;;0.97;;
18200;SDS011;9226;47.858;9.594;2023-04-01T02:21:50;0.63;;;0.50;;
18200;SDS011;9226;47.858;9.594;2023-04-01T02:24:20;0.90;;;0.60;;
18200;SDS011;9226;47.858;9.594;2023-04-01T02:26:50;1.33;;;0.67;;
18200;SDS011;9226;47.858;9.594;2023-04-01T02:29:18;0.63;;;0.60;;
18200;SDS011;9226;47.858;9.594;2023-04-01T02:31:46;3.00;;;0.60;;
18200;SDS011;9226;47.858;9.594;2023-04-01T02:34:12;2.73;;;0.60;;
18200;SDS011;9226;47.858;9.594;2023-04-01T02:36:38;0.50;;;0.50;;
18200;SDS011;9226;47.858;9.594;2023-04-01T02:39:04;4.13;;;0.80;;
18200;SDS011;9226;47.858;9.594;2023-04-01T02:41:30;1.40;;;0.63;;
18200;SDS011;9226;47.858;9.594;2023-04-01T02:43:56;3.60;;;0.90;;
18200;SDS011;9226;47.858;9.594;2023-04-01T02:46:23;1.23;;;0.70;;
18200;SDS011;9226;47.858;9.594;2023-04-01T02:48:49;1.03;;;0.67;;
18200;SDS011;9226;47.858;9.594;2023-04-01T02:51:14;0.97;;;0.70;;
18200;SDS011;9226;47.858;9.594;2023-04-01T02:53:40;0.77;;;0.57;;
18200;SDS011;9226;47.858;9.594;2023-04-01T02:56:05;3.50;;;0.63;;
18200;SDS011;9226;47.858;9.594;2023-04-01T02:58:31;0.60;;;0.40;;
18200;SDS011;9226;47.858;9.594;2023-04-01T03:00:56;1.17;;;0.60;;
18200;SDS011;9226;47.858;9.594;2023-04-01T03:03:22;1.63;;;0.73;;
18200;SDS011;9226;47.858;9.594;2023-04-01T03:05:47;2.67;;;0.60;;
18200;SDS011;9226;47.858;9.594;2023-04-01T03:08:14;1.27;;;0.60;;
18200;SDS011;9226;47.858;9.594;2023-04-01T03:10:40;4.17;;;0.60;;
18200;SDS011;9226;47.858;9.594;2023-04-01T03:13:05;3.60;;;0.80;;
18200;SDS011;9226;47.858;9.594;2023-04-01T03:15:31;1.53;;;0.90;;
18200;SDS011;9226;47.858;9.594;2023-04-01T03:17:56;3.03;;;0.80;;
18200;SDS011;9226;47.858;9.594;2023-04-01T03:20:22;0.40;;;0.40;;
18200;SDS011;9226;47.858;9.594;2023-04-01T03:22:47;3.20;;;0.80;;
18200;SDS011;9226;47.858;9.594;2023-04-01T03:25:12;1.30;;;0.80;;
18200;SDS011;9226;47.858;9.594;2023-04-01T03:27:38;2.03;;;0.80;;
18200;SDS011;9226;47.858;9.594;2023-04-01T03:30:04;2.70;;;0.63;;
18200;SDS011;9226;47.858;9.594;2023-04-01T03:32:30;2.67;;;0.80;;
18200;SDS011;9226;47.858;9.594;2023-04-01T03:34:56;1.67;;;0.60;;
18200;SDS011;9226;47.858;9.594;2023-04-01T03:37:22;2.03;;;0.73;;
18200;SDS011;9226;47.858;9.594;2023-04-01T03:39:48;0.80;;;0.60;;
18200;SDS011;9226;47.858;9.594;2023-04-01T03:42:14;5.07;;;0.70;;
18200;SDS011;9226;47.858;9.594;2023-04-01T03:44:40;6.23;;;0.90;;
18200;SDS011;9226;47.858;9.594;2023-04-01T03:47:05;1.83;;;0.70;;
18200;SDS011;9226;47.858;9.594;2023-04-01T03:49:30;2.13;;;0.80;;
18200;SDS011;9226;47.858;9.594;2023-04-01T03:51:57;2.93;;;0.70;;
18200;SDS011;9226;47.858;9.594;2023-04-01T03:54:22;5.63;;;1.03;;
18200;SDS011;9226;47.858;9.594;2023-04-01T03:56:48;1.87;;;0.67;;
18200;SDS011;9226;47.858;9.594;2023-04-01T03:59:13;1.43;;;0.60;;
18200;SDS011;9226;47.858;9.594;2023-04-01T04:01:39;3.27;;;0.70;;
18200;SDS011;9226;47.858;9.594;2023-04-01T04:04:04;2.13;;;0.70;;
18200;SDS011;9226;47.858;9.594;2023-04-01T04:06:30;3.10;;;0.80;;
18200;SDS011;9226;47.858;9.594;2023-04-01T04:08:56;3.40;;;0.90;;
18200;SDS011;9226;47.858;9.594;2023-04-01T04:11:21;2.47;;;0.70;;
18200;SDS011;9226;47.858;9.594;2023-04-01T04:13:47;3.47;;;0.80;;
18200;SDS011;9226;47.858;9.594;2023-04-01T04:16:13;4.63;;;0.90;;
18200;SDS011;9226;47.858;9.594;2023-04-01T04:18:39;3.03;;;0.80;;
18200;SDS011;9226;47.858;9.594;2023-04-01T04:21:05;3.80;;;0.80;;
18200;SDS011;9226;47.858;9.594;2023-04-01T04:23:30;3.63;;;0.60;;
18200;SDS011;9226;47.858;9.594;2023-04-01T04:28:24;5.10;;;0.80;;
18200;SDS011;9226;47.858;9.594;2023-04-01T04:30:51;4.03;;;0.80;;
18200;SDS011;9226;47.858;9.594;2023-04-01T04:33:16;1.80;;;0.60;;
18200;SDS011;9226;47.858;9.594;2023-04-01T04:35:42;3.97;;;0.87;;
18200;SDS011;9226;47.858;9.594;2023-04-01T04:38:07;4.23;;;0.90;;
18200;SDS011;9226;47.858;9.594;2023-04-01T04:40:32;2.80;;;0.70;;
18200;SDS011;9226;47.858;9.594;2023-04-01T04:42:58;9.67;;;1.03;;
18200;SDS011;9226;47.858;9.594;2023-04-01T04:45:23;4.60;;;0.80;;
18200;SDS011;9226;47.858;9.594;2023-04-01T04:47:48;3.33;;;0.80;;
18200;SDS011;9226;47.858;9.594;2023-04-01T04:50:14;1.53;;;0.70;;
18200;SDS011;9226;47.858;9.594;2023-04-01T04:52:39;5.10;;;1.07;;
18200;SDS011;9226;47.858;9.594;2023-04-01T04:55:05;5.10;;;0.77;;
18200;SDS011;9226;47.858;9.594;2023-04-01T04:57:30;5.90;;;0.87;;
18200;SDS011;9226;47.858;9.594;2023-04-01T04:59:56;3.30;;;0.87;;
18200;SDS011;9226;47.858;9.594;2023-04-01T05:02:21;2.87;;;0.90;;
18200;SDS011;9226;47.858;9.594;2023-04-01T05:04:47;5.93;;;0.90;;
18200;SDS011;9226;47.858;9.594;2023-04-01T05:07:12;8.20;;;1.27;;
18200;SDS011;9226;47.858;9.594;2023-04-01T05:09:37;3.70;;;1.10;;
18200;SDS011;9226;47.858;9.594;2023-04-01T05:12:03;2.90;;;0.90;;
18200;SDS011;9226;47.858;9.594;2023-04-01T05:14:28;4.67;;;0.77;;
18200;SDS011;9226;47.858;9.594;2023-04-01T05:16:54;5.60;;;1.13;;
18200;SDS011;9226;47.858;9.594;2023-04-01T05:19:19;4.37;;;0.80;;
18200;SDS011;9226;47.858;9.594;2023-04-01T05:21:45;3.43;;;0.70;;
18200;SDS011;9226;47.858;9.594;2023-04-01T05:24:10;1.10;;;0.70;;
18200;SDS011;9226;47.858;9.594;2023-04-01T05:26:35;1.67;;;0.70;;
18200;SDS011;9226;47.858;9.594;2023-04-01T05:29:02;1.70;;;0.60;;
18200;SDS011;9226;47.858;9.594;2023-04-01T05:31:28;3.30;;;0.80;;
18200;SDS011;9226;47.858;9.594;2023-04-01T05:33:54;2.97;;;0.60;;
18200;SDS011;9226;47.858;9.594;2023-04-01T05:36:20;3.57;;;0.80;;
18200;SDS011;9226;47.858;9.594;2023-04-01T05:38:46;3.40;;;0.70;;
18200;SDS011;9226;47.858;9.594;2023-04-01T05:41:12;4.57;;;0.70;;
18200;SDS011;9226;47.858;9.594;2023-04-01T05:43:38;1.70;;;0.70;;
18200;SDS011;9226;47.858;9.594;2023-04-01T05:46:04;1.07;;;0.57;;
18200;SDS011;9226;47.858;9.594;2023-04-01T05:48:30;1.70;;;0.70;;
18200;SDS011;9226;47.858;9.594;2023-04-01T05:50:55;3.37;;;0.70;;
18200;SDS011;9226;47.858;9.594;2023-04-01T05:53:21;1.13;;;0.50;;
18200;SDS011;9226;47.858;9.594;2023-04-01T05:55:47;2.33;;;0.93;;
18200;SDS011;9226;47.858;9.594;2023-04-01T05:58:12;2.00;;;0.50;;
18200;SDS011;9226;47.858;9.594;2023-04-01T06:00:38;3.47;;;0.70;;
18200;SDS011;9226;47.858;9.594;2023-04-01T06:03:03;4.47;;;0.90;;
18200;SDS011;9226;47.858;9.594;2023-04-01T06:05:29;4.03;;;1.03;;
18200;SDS011;9226;47.858;9.594;2023-04-01T06:08:04;2.23;;;0.77;;
18200;SDS011;9226;47.858;9.594;2023-04-01T06:13:24;1.23;;;0.67;;
18200;SDS011;9226;47.858;9.594;2023-04-01T06:16:00;1.00;;;0.90;;
18200;SDS011;9226;47.858;9.594;2023-04-01T06:27:13;2.50;;;0.50;;
18200;SDS011;9226;47.858;9.594;2023-04-01T06:35:35;1.07;;;0.57;;
18200;SDS011;9226;47.858;9.594;2023-04-01T06:49:10;2.13;;;0.97;;
18200;SDS011;9226;47.858;9.594;2023-04-01T06:51:46;2.80;;;0.60;;
18200;SDS011;9226;47.858;9.594;2023-04-01T06:54:30;3.17;;;0.50;;
18200;SDS011;9226;47.858;9.594;2023-04-01T06:57:02;1.63;;;0.70;;
18200;SDS011;9226;47.858;9.594;2023-04-01T06:59:51;5.30;;;0.70;;
18200;SDS011;9226;47.858;9.594;2023-04-01T07:02:59;1.07;;;0.50;;
18200;SDS011;9226;47.858;9.594;2023-04-01T07:05:23;4.20;;;0.63;;
18200;SDS011;9226;47.858;9.594;2023-04-01T07:07:56;1.57;;;0.60;;
18200;SDS011;9226;47.858;9.594;2023-04-01T07:13:12;0.60;;;0.50;;
18200;SDS011;9226;47.858;9.594;2023-04-01T07:15:46;2.87;;;0.77;;
18200;SDS011;9226;47.858;9.594;2023-04-01T07:18:37;1.87;;;0.60;;
18200;SDS011;9226;47.858;9.594;2023-04-01T07:21:04;0.73;;;0.43;;
18200;SDS011;9226;47.858;9.594;2023-04-01T07:23:39;1.17;;;0.60;;
18200;SDS011;9226;47.858;9.594;2023-04-01T07:26:17;0.60;;;0.47;;
18200;SDS011;9226;47.858;9.594;2023-04-01T07:28:45;0.93;;;0.40;;
18200;SDS011;9226;47.858;9.594;2023-04-01T07:31:15;0.40;;;0.40;;
18200;SDS011;9226;47.858;9.594;2023-04-01T07:36:39;2.87;;;0.50;;
18200;SDS011;9226;47.858;9.594;2023-04-01T07:39:13;2.83;;;0.50;;
18200;SDS011;9226;47.858;9.594;2023-04-01T07:56:02;0.50;;;0.50;;
18200;SDS011;9226;47.858;9.594;2023-04-01T08:01:04;2.40;;;0.60;;
18200;SDS011;9226;47.858;9.594;2023-04-01T08:06:31;0.73;;;0.40;;
18200;SDS011;9226;47.858;9.594;2023-04-01T08:09:11;0.83;;;0.60;;
18200;SDS011;9226;47.858;9.594;2023-04-01T08:17:10;0.30;;;0.30;;
18200;SDS011;9226;47.858;9.594;2023-04-01T08:22:28;0.83;;;0.47;;
18200;SDS011;9226;47.858;9.594;2023-04-01T08:25:00;0.43;;;0.40;;
18200;SDS011;9226;47.858;9.594;2023-04-01T08:27:37;2.57;;;0.40;;
18200;SDS011;9226;47.858;9.594;2023-04-01T08:30:25;0.87;;;0.40;;
18200;SDS011;9226;47.858;9.594;2023-04-01T08:33:04;0.40;;;0.40;;
18200;SDS011;9226;47.858;9.594;2023-04-01T08:47:16;0.30;;;0.30;;
18200;SDS011;9226;47.858;9.594;2023-04-01T08:58:42;1.80;;;0.50;;
18200;SDS011;9226;47.858;9.594;2023-04-01T09:01:55;0.40;;;0.40;;
18200;SDS011;9226;47.858;9.594;2023-04-01T09:20:58;0.63;;;0.57;;
18200;SDS011;9226;47.858;9.594;2023-04-01T09:32:12;1.30;;;0.50;;
18200;SDS011;9226;47.858;9.594;2023-04-01T09:42:39;0.37;;;0.37;;
18200;SDS011;9226;47.858;9.594;2023-04-01T09:45:13;0.40;;;0.40;;
18200;SDS011;9226;47.858;9.594;2023-04-01T09:50:34;1.50;;;0.43;;
18200;SDS011;9226;47.858;9.594;2023-04-01T09:56:19;0.40;;;0.40;;
18200;SDS011;9226;47.858;9.594;2023-04-01T10:13:10;1.80;;;0.40;;
18200;SDS011;9226;47.858;9.594;2023-04-01T10:19:05;0.57;;;0.40;;
18200;SDS011;9226;47.858;9.594;2023-04-01T10:24:17;0.40;;;0.40;;
18200;SDS011;9226;47.858;9.594;2023-04-01T10:30:26;0.40;;;0.40;;
18200;SDS011;9226;47.858;9.594;2023-04-01T10:44:38;0.30;;;0.30;;
18200;SDS011;9226;47.858;9.594;2023-04-01T11:39:59;0.30;;;0.30;;
18200;SDS011;9226;47.858;9.594;2023-04-01T11:42:34;0.37;;;0.37;;
18200;SDS011;9226;47.858;9.594;2023-04-01T12:04:15;0.57;;;0.40;;
18200;SDS011;9226;47.858;9.594;2023-04-01T12:07:22;0.30;;;0.30;;
18200;SDS011;9226;47.858;9.594;2023-04-01T12:18:02;0.83;;;0.57;;
18200;SDS011;9226;47.858;9.594;2023-04-01T13:08:14;1.23;;;0.70;;
18200;SDS011;9226;47.858;9.594;2023-04-01T13:10:53;2.00;;;0.97;;
18200;SDS011;9226;47.858;9.594;2023-04-01T13:42:26;0.67;;;0.30;;
18200;SDS011;9226;47.858;9.594;2023-04-01T13:45:12;0.70;;;0.37;;
18200;SDS011;9226;47.858;9.594;2023-04-01T13:55:54;1.40;;;0.40;;
18200;SDS011;9226;47.858;9.594;2023-04-01T13:58:35;0.90;;;0.43;;
18200;SDS011;9226;47.858;9.594;2023-04-01T14:04:37;2.87;;;0.50;;
18200;SDS011;9226;47.858;9.594;2023-04-01T14:13:01;1.50;;;0.50;;
18200;SDS011;9226;47.858;9.594;2023-04-01T14:15:56;0.73;;;0.50;;
18200;SDS011;9226;47.858;9.594;2023-04-01T14:18:34;1.13;;;0.60;;
18200;SDS011;9226;47.858;9.594;2023-04-01T14:21:11;1.67;;;0.60;;
18200;SDS011;9226;47.858;9.594;2023-04-01T14:32:02;0.27;;;0.27;;
18200;SDS011;9226;47.858;9.594;2023-04-01T14:45:20;0.50;;;0.50;;
18200;SDS011;9226;47.858;9.594;2023-04-01T14:47:58;0.70;;;0.43;;
18200;SDS011;9226;47.858;9.594;2023-04-01T14:50:40;0.60;;;0.40;;
18200;SDS011;9226;47.858;9.594;2023-04-01T14:53:53;0.83;;;0.63;;
18200;SDS011;9226;47.858;9.594;2023-04-01T14:56:00;2.00;;;0.60;;
18200;SDS011;9226;47.858;9.594;2023-04-01T14:58:51;1.17;;;0.57;;
18200;SDS011;9226;47.858;9.594;2023-04-01T15:07:10;1.30;;;0.70;;
18200;SDS011;9226;47.858;9.594;2023-04-01T15:12:33;2.53;;;0.80;;
18200;SDS011;9226;47.858;9.594;2023-04-01T15:17:58;0.57;;;0.50;;
18200;SDS011;9226;47.858;9.594;2023-04-01T15:26:26;0.63;;;0.63;;
18200;SDS011;9226;47.858;9.594;2023-04-01T15:34:50;0.73;;;0.60;;
18200;SDS011;9226;47.858;9.594;2023-04-01T15:37:35;1.00;;;0.73;;
18200;SDS011;9226;47.858;9.594;2023-04-01T15:53:20;0.50;;;0.50;;
18200;SDS011;9226;47.858;9.594;2023-04-01T15:55:59;1.30;;;0.57;;
18200;SDS011;9226;47.858;9.594;2023-04-01T16:09:20;0.40;;;0.40;;
18200;SDS011;9226;47.858;9.594;2023-04-01T16:12:07;1.60;;;0.53;;
18200;SDS011;9226;47.858;9.594;2023-04-01T16:15:02;2.23;;;0.50;;
18200;SDS011;9226;47.858;9.594;2023-04-01T16:22:37;1.23;;;0.60;;
18200;SDS011;9226;47.858;9.594;2023-04-01T16:25:17;1.50;;;0.50;;
18200;SDS011;9226;47.858;9.594;2023-04-01T16:27:58;0.93;;;0.40;;
18200;SDS011;9226;47.858;9.594;2023-04-01T16:33:57;5.53;;;2.23;;
18200;SDS011;9226;47.858;9.594;2023-04-01T16:47:37;0.60;;;0.60;;
18200;SDS011;9226;47.858;9.594;2023-04-01T16:55:17;0.70;;;0.50;;
18200;SDS011;9226;47.858;9.594;2023-04-01T17:03:12;0.70;;;0.70;;
18200;SDS011;9226;47.858;9.594;2023-04-01T17:11:12;0.90;;;0.80;;
18200;SDS011;9226;47.858;9.594;2023-04-01T17:16:25;1.83;;;1.17;;
18200;SDS011;9226;47.858;9.594;2023-04-01T17:21:49;1.77;;;1.20;;
18200;SDS011;9226;47.858;9.594;2023-04-01T17:24:26;0.80;;;0.70;;
18200;SDS011;9226;47.858;9.594;2023-04-01T17:27:20;1.30;;;0.47;;
18200;SDS011;9226;47.858;9.594;2023-04-01T17:30:01;0.63;;;0.60;;
18200;SDS011;9226;47.858;9.594;2023-04-01T17:35:35;1.30;;;0.97;;
18200;SDS011;9226;47.858;9.594;2023-04-01T17:38:45;0.60;;;0.47;;
18200;SDS011;9226;47.858;9.594;2023-04-01T17:49:12;1.27;;;1.10;;
18200;SDS011;9226;47.858;9.594;2023-04-01T17:57:26;3.37;;;1.30;;
18200;SDS011;9226;47.858;9.594;2023-04-01T18:00:00;2.67;;;0.83;;
18200;SDS011;9226;47.858;9.594;2023-04-01T18:11:09;1.77;;;1.00;;
18200;SDS011;9226;47.858;9.594;2023-04-01T18:21:45;1.43;;;1.10;;
18200;SDS011;9226;47.858;9.594;2023-04-01T18:24:22;3.03;;;1.20;;
18200;SDS011;9226;47.858;9.594;2023-04-01T18:27:03;1.13;;;0.90;;
18200;SDS011;9226;47.858;9.594;2023-04-01T18:32:37;1.80;;;1.20;;
18200;SDS011;9226;47.858;9.594;2023-04-01T18:43:14;2.90;;;1.50;;
18200;SDS011;9226;47.858;9.594;2023-04-01T18:45:50;4.70;;;2.23;;
18200;SDS011;9226;47.858;9.594;2023-04-01T18:51:25;2.10;;;1.20;;
18200;SDS011;9226;47.858;9.594;2023-04-01T18:54:10;1.90;;;1.40;;
18200;SDS011;9226;47.858;9.594;2023-04-01T18:56:41;2.67;;;1.70;;
18200;SDS011;9226;47.858;9.594;2023-04-01T19:05:01;4.60;;;1.93;;
18200;SDS011;9226;47.858;9.594;2023-04-01T19:10:07;3.77;;;1.60;;
18200;SDS011;9226;47.858;9.594;2023-04-01T19:12:42;4.43;;;2.00;;
18200;SDS011;9226;47.858;9.594;2023-04-01T19:21:16;7.63;;;2.67;;
18200;SDS011;9226;47.858;9.594;2023-04-01T19:26:32;8.77;;;2.60;;
18200;SDS011;9226;47.858;9.594;2023-04-01T19:43:24;4.17;;;1.90;;
18200;SDS011;9226;47.858;9.594;2023-04-01T19:51:01;3.23;;;1.80;;
18200;SDS011;9226;47.858;9.594;2023-04-01T19:53:46;3.27;;;1.90;;
18200;SDS011;9226;47.858;9.594;2023-04-01T19:56:24;3.50;;;1.60;;
18200;SDS011;9226;47.858;9.594;2023-04-01T19:59:19;1.47;;;1.20;;
18200;SDS011;9226;47.858;9.594;2023-04-01T20:01:59;2.07;;;1.40;;
18200;SDS011;9226;47.858;9.594;2023-04-01T20:04:55;2.37;;;1.47;;
18200;SDS011;9226;47.858;9.594;2023-04-01T20:07:43;2.20;;;1.10;;
18200;SDS011;9226;47.858;9.594;2023-04-01T20:10:17;2.90;;;1.10;;
18200;SDS011;9226;47.858;9.594;2023-04-01T20:15:47;1.23;;;1.00;;
18200;SDS011;9226;47.858;9.594;2023-04-01T20:18:26;2.30;;;1.30;;
18200;SDS011;9226;47.858;9.594;2023-04-01T20:21:06;1.53;;;1.13;;
18200;SDS011;9226;47.858;9.594;2023-04-01T20:23:45;2.47;;;1.50;;
18200;SDS011;9226;47.858;9.594;2023-04-01T20:26:22;1.50;;;1.27;;
18200;SDS011;9226;47.858;9.594;2023-04-01T20:37:30;8.07;;;1.37;;
18200;SDS011;9226;47.858;9.594;2023-04-01T20:45:30;3.53;;;1.20;;
18200;SDS011;9226;47.858;9.594;2023-04-01T20:51:06;2.93;;;1.23;;
18200;SDS011;9226;47.858;9.594;2023-04-01T21:01:38;3.33;;;1.60;;
18200;SDS011;9226;47.858;9.594;2023-04-01T21:07:36;1.17;;;0.90;;
18200;SDS011;9226;47.858;9.594;2023-04-01T21:18:16;3.73;;;1.20;;
18200;SDS011;9226;47.858;9.594;2023-04-01T21:26:26;2.53;;;1.27;;
18200;SDS011;9226;47.858;9.594;2023-04-01T22:05:19;2.80;;;1.30;;
18200;SDS011;9226;47.858;9.594;2023-04-01T22:07:59;1.20;;;1.10;;
18200;SDS011;9226;47.858;9.594;2023-04-01T22:16:20;1.00;;;0.70;;
18200;SDS011;9226;47.858;9.594;2023-04-01T22:29:35;4.37;;;1.07;;
18200;SDS011;9226;47.858;9.594;2023-04-01T22:32:04;1.80;;;1.00;;
18200;SDS011;9226;47.858;9.594;2023-04-01T22:38:15;1.27;;;0.80;;
18200;SDS011;9226;47.858;9.594;2023-04-01T22:40:51;3.27;;;0.90;;
18200;SDS011;9226;47.858;9.594;2023-04-01T22:43:33;1.20;;;0.97;;
18200;SDS011;9226;47.858;9.594;2023-04-01T22:51:37;1.57;;;0.70;;
18200;SDS011;9226;47.858;9.594;2023-04-01T22:56:55;1.33;;;0.87;;
18200;SDS011;9226;47.858;9.594;2023-04-01T23:01:59;1.43;;;0.90;;
18200;SDS011;9226;47.858;9.594;2023-04-01T23:04:32;1.50;;;0.80;;
18200;SDS011;9226;47.858;9.594;2023-04-01T23:07:04;2.83;;;1.00;;
18200;SDS011;9226;47.858;9.594;2023-04-01T23:09:48;3.00;;;0.90;;
18200;SDS011;9226;47.858;9.594;2023-04-01T23:12:14;1.50;;;0.90;;
18200;SDS011;9226;47.858;9.594;2023-04-01T23:14:43;3.20;;;1.00;;
18200;SDS011;9226;47.858;9.594;2023-04-01T23:28:55;2.30;;;1.10;;
18200;SDS011;9226;47.858;9.594;2023-04-01T23:31:29;0.83;;;0.80;;
18200;SDS011;9226;47.858;9.594;2023-04-01T23:34:31;2.47;;;0.77;;
18200;SDS011;9226;47.858;9.594;2023-04-01T23:36:55;1.77;;;0.93;;
18200;SDS011;9226;47.858;9.594;2023-04-01T23:39:25;4.40;;;1.10;;
18200;SDS011;9226;47.858;9.594;2023-04-01T23:41:59;1.63;;;0.97;;
18200;SDS011;9226;47.858;9.594;2023-04-01T23:44:27;3.53;;;0.90;;
18200;SDS011;9226;47.858;9.594;2023-04-01T23:46:54;0.93;;;0.80;;
18200;SDS011;9226;47.858;9.594;2023-04-01T23:49:23;2.83;;;0.90;;
18200;SDS011;9226;47.858;9.594;2023-04-01T23:51:56;0.90;;;0.70;;
18200;SDS011;9226;47.858;9.594;2023-04-01T23:54:42;2.00;;;1.00;;
18200;SDS011;9226;47.858;9.594;2023-04-01T23:57:18;1.70;;;1.00;;
